Time;durP1;ratioP1;P1;durP2;ratioP2;P2;SDS_P1;SDS_P2;PMS_P1;PMS_P2;Temp;Humidity;BMP_temperature;BMP_pressure;BME280_temperature;BME280_humidity;BME280_pressure;Samples;Min_cycle;Max_cycle;Signal;HPM_P1;HPM_P2
2023/03/01 00:01:32;;;;;;;32.53;21.53;;;1.20;99.90;;;;;;5131050;23;20752;-85
2023/03/01 00:03:59;;;;;;;29.80;21.53;;;1.20;99.90;;;;;;5587449;23;38540;-83
2023/03/01 00:09:01;;;;;;;30.67;21.80;;;1.10;99.90;;;;;;5580426;23;20051;-83
2023/03/01 00:11:33;;;;;;;33.90;22.80;;;1.10;99.90;;;;;;4931904;29;38772;-83
2023/03/01 00:14:01;;;;;;;34.17;24.50;;;1.10;99.90;;;;;;5042588;23;40349;-84
2023/03/01 00:16:54;;;;;;;33.93;24.57;;;1.00;99.90;;;;;;4967022;28;38714;-84
2023/03/01 00:19:23;;;;;;;36.40;23.87;;;1.00;99.90;;;;;;4976289;28;39184;-82
2023/03/01 00:21:50;;;;;;;30.30;22.50;;;1.00;99.90;;;;;;4977370;28;40529;-82
2023/03/01 00:24:17;;;;;;;38.27;26.60;;;1.00;99.90;;;;;;5459660;23;39669;-83
2023/03/01 00:26:46;;;;;;;34.00;23.37;;;1.00;99.90;;;;;;4959978;28;39700;-84
2023/03/01 00:29:24;;;;;;;35.33;24.30;;;1.10;99.90;;;;;;4959438;28;37003;-83
2023/03/01 00:32:02;;;;;;;30.60;23.13;;;1.00;99.90;;;;;;4962228;28;39206;-83
2023/03/01 00:34:28;;;;;;;34.27;21.80;;;0.90;99.90;;;;;;4975379;28;49925;-84
2023/03/01 00:37:05;;;;;;;32.10;24.53;;;0.90;99.90;;;;;;4976028;28;39776;-83
2023/03/01 00:39:33;;;;;;;31.03;23.03;;;0.80;99.90;;;;;;5519642;23;48427;-83
2023/03/01 00:41:59;;;;;;;35.73;23.13;;;0.80;99.90;;;;;;5170873;23;39109;-84
2023/03/01 00:44:28;;;;;;;33.70;22.73;;;0.90;99.90;;;;;;4997657;23;38877;-83
2023/03/01 00:46:58;;;;;;;29.50;22.37;;;0.80;99.90;;;;;;4945376;28;37288;-84
2023/03/01 00:49:27;;;;;;;32.40;23.27;;;0.70;99.90;;;;;;5157726;23;39336;-83
2023/03/01 00:51:53;;;;;;;30.70;22.07;;;0.70;99.90;;;;;;4961033;28;39219;-84
2023/03/01 00:56:58;;;;;;;31.47;22.40;;;0.60;99.90;;;;;;5155809;23;20036;-84
2023/03/01 00:59:24;;;;;;;32.40;22.63;;;0.60;99.90;;;;;;5198022;23;36789;-83
2023/03/01 01:04:53;;;;;;;37.25;23.98;;;0.40;99.90;;;;;;5476886;23;20036;-84
2023/03/01 01:07:28;;;;;;;31.83;22.80;;;0.30;99.90;;;;;;4952616;28;37938;-85
2023/03/01 01:09:54;;;;;;;35.93;24.43;;;0.30;99.90;;;;;;4959900;28;37780;-83
2023/03/01 01:14:57;;;;;;;40.50;26.77;;;0.20;99.90;;;;;;4998455;23;20042;-84
2023/03/01 01:17:47;;;;;;;38.77;23.87;;;0.20;99.90;;;;;;4948762;28;38382;-83
2023/03/01 01:20:16;;;;;;;34.57;24.00;;;0.30;99.90;;;;;;5699409;23;37574;-84
2023/03/01 01:22:42;;;;;;;39.30;26.07;;;0.30;99.90;;;;;;5086285;23;35894;-84
2023/03/01 01:25:16;;;;;;;36.93;26.73;;;0.30;99.90;;;;;;5022260;23;38109;-82
2023/03/01 01:27:45;;;;;;;37.40;24.80;;;0.30;99.90;;;;;;5210226;23;38652;-83
2023/03/01 01:32:50;;;;;;;41.67;25.77;;;0.30;99.90;;;;;;5152130;23;20036;-83
2023/03/01 01:35:17;;;;;;;39.13;26.30;;;0.30;99.90;;;;;;5104454;23;37689;-84
2023/03/01 01:45:34;;;;;;;38.73;26.20;;;0.20;99.90;;;;;;5929223;23;20023;-82
2023/03/01 01:53:18;;;;;;;42.47;28.43;;;0.30;99.90;;;;;;5999492;23;20024;-81
2023/03/01 01:55:50;;;;;;;50.33;32.35;;;0.40;99.90;;;;;;4961730;28;38100;-84
2023/03/01 01:58:30;;;;;;;45.53;28.55;;;0.50;99.90;;;;;;4943758;28;38291;-85
2023/03/01 02:03:59;;;;;;;54.33;33.93;;;0.50;99.90;;;;;;4696063;23;20009;-84
2023/03/01 02:15:43;;;;;;;46.27;30.10;;;0.40;99.90;;;;;;5287509;23;20046;-83
2023/03/01 02:23:27;;;;;;;48.47;30.43;;;0.40;99.90;;;;;;5251380;23;20058;-84
2023/03/01 02:26:09;;;;;;;47.88;31.33;;;0.40;99.90;;;;;;4962816;28;38990;-84
2023/03/01 02:28:40;;;;;;;48.28;30.02;;;0.30;99.90;;;;;;4965359;28;48226;-84
2023/03/01 02:33:39;;;;;;;50.47;32.13;;;0.30;99.90;;;;;;4962427;28;20044;-83
2023/03/01 02:36:17;;;;;;;53.57;34.37;;;0.30;99.90;;;;;;4939301;28;39220;-83
2023/03/01 02:41:21;;;;;;;47.50;31.40;;;0.20;99.90;;;;;;5604073;23;20031;-83
2023/03/01 02:43:48;;;;;;;49.37;30.83;;;0.20;99.90;;;;;;5081512;23;38743;-85
2023/03/01 02:46:29;;;;;;;;;;;;;;;;;;;;;
2023/03/01 02:52:28;;;;;;;49.03;31.90;;;0.10;99.90;;;;;;4959885;28;20028;-84
2023/03/01 02:57:34;;;;;;;52.60;33.47;;;0.20;99.90;;;;;;5081693;23;20205;-84
2023/03/01 03:00:07;;;;;;;50.37;31.30;;;0.20;99.90;;;;;;4958672;23;38558;-83
2023/03/01 03:02:37;;;;;;;52.87;34.57;;;0.10;99.90;;;;;;5020003;23;38054;-85
2023/03/01 03:05:11;;;;;;;54.13;33.37;;;0.10;99.90;;;;;;5484165;23;39714;-82
2023/03/01 03:07:40;;;;;;;45.70;30.40;;;0.00;99.90;;;;;;4951507;23;48238;-84
2023/03/01 03:10:16;;;;;;;47.57;31.60;;;0.00;99.90;;;;;;5113709;23;39654;-81
2023/03/01 03:12:42;;;;;;;44.60;29.90;;;-0.10;99.90;;;;;;5256313;23;37247;-83
2023/03/01 03:15:12;;;;;;;50.50;31.83;;;-0.10;99.90;;;;;;5513108;23;36647;-82
2023/03/01 03:17:40;;;;;;;46.33;30.37;;;-0.20;99.90;;;;;;5649457;23;39178;-82
2023/03/01 03:20:11;;;;;;;52.90;31.60;;;-0.20;99.90;;;;;;5500840;23;39695;-84
2023/03/01 03:22:40;;;;;;;53.40;32.50;;;-0.30;99.90;;;;;;5880376;23;40059;-82
2023/03/01 03:25:11;;;;;;;48.23;31.23;;;-0.40;99.90;;;;;;5698081;23;37632;-82
2023/03/01 03:32:52;;;;;;;41.27;27.80;;;-0.60;99.90;;;;;;5945828;23;20035;-84
2023/03/01 03:35:50;;;;;;;42.63;27.60;;;-0.60;99.90;;;;;;4946525;28;37220;-82
2023/03/01 03:41:03;;;;;;;44.77;27.47;;;-0.80;99.90;;;;;;5129073;23;20036;-84
2023/03/01 04:16:34;;;;;;;49.27;26.73;;;-1.30;99.90;;;;;;5825923;23;20027;-84
2023/03/01 04:22:18;;;;;;;45.80;24.60;;;-1.30;99.90;;;;;;5702893;23;20024;-83
2023/03/01 04:29:59;;;;;;;39.27;25.40;;;-1.40;99.90;;;;;;5150218;23;20036;-84
2023/03/01 04:32:59;;;;;;;41.63;26.77;;;-1.40;99.90;;;;;;4963696;28;39016;-85
2023/03/01 04:35:26;;;;;;;35.93;22.43;;;-1.50;99.90;;;;;;5639739;23;39165;-83
2023/03/01 05:25:09;;;;;;;36.00;22.77;;;-1.80;99.90;;;;;;5678926;23;20047;-84
2023/03/01 05:41:06;;;;;;;44.30;27.90;;;-1.90;99.90;;;;;;5914230;23;20020;-83
2023/03/01 06:42:29;;;;;;;45.37;26.57;;;-2.00;99.90;;;;;;5760038;23;20044;-82
2023/03/01 06:44:55;;;;;;;42.93;27.27;;;-2.00;99.90;;;;;;4946947;28;38417;-80
2023/03/01 06:47:27;;;;;;;48.00;26.53;;;-2.10;99.90;;;;;;4957331;28;38339;-85
2023/03/01 06:49:55;;;;;;;40.63;25.37;;;-2.10;99.90;;;;;;5430229;23;39086;-84
2023/03/01 06:52:38;;;;;;;43.60;27.23;;;-2.20;99.90;;;;;;4958092;28;38919;-84
2023/03/01 06:55:39;;;;;;;46.73;27.53;;;-2.20;99.90;;;;;;4960062;28;38153;-83
2023/03/01 06:58:12;;;;;;;44.10;26.80;;;-2.30;99.90;;;;;;4964290;28;48089;-82
2023/03/01 07:00:49;;;;;;;43.67;27.23;;;-2.20;99.90;;;;;;4965099;28;37569;-83
2023/03/01 07:03:34;;;;;;;44.70;27.20;;;-2.20;99.90;;;;;;4965073;28;38903;-84
2023/03/01 07:06:00;;;;;;;46.17;27.70;;;-2.20;99.90;;;;;;4960932;28;38308;-84
2023/03/01 07:08:56;;;;;;;40.47;25.43;;;-2.20;99.90;;;;;;4968606;28;37731;-84
2023/03/01 07:11:52;;;;;;;41.53;25.87;;;-2.30;99.90;;;;;;4977349;28;38763;-83
2023/03/01 07:14:43;;;;;;;43.60;26.17;;;-2.30;99.90;;;;;;4972302;28;40150;-83
2023/03/01 07:17:12;;;;;;;43.60;25.97;;;-2.30;99.90;;;;;;4949076;28;37665;-83
2023/03/01 07:19:57;;;;;;;43.33;25.90;;;-2.30;99.90;;;;;;4961411;28;38145;-83
2023/03/01 07:23:01;;;;;;;50.10;27.77;;;-2.30;99.90;;;;;;4964798;28;37268;-84
2023/03/01 07:25:29;;;;;;;42.33;25.20;;;-2.30;99.90;;;;;;4970873;28;38611;-84
2023/03/01 07:28:10;;;;;;;45.50;26.70;;;-2.30;99.90;;;;;;5198894;23;38459;-84
2023/03/01 07:30:37;;;;;;;45.07;26.30;;;-2.20;99.90;;;;;;5147708;23;48556;-82
2023/03/01 07:33:03;;;;;;;48.63;26.00;;;-2.20;99.90;;;;;;4945307;28;35634;-82
2023/03/01 07:35:37;;;;;;;43.60;27.67;;;-2.10;99.90;;;;;;4937959;28;38585;-82
2023/03/01 07:38:03;;;;;;;44.83;27.13;;;-2.10;99.90;;;;;;4945684;28;38341;-82
2023/03/01 07:40:30;;;;;;;41.07;25.00;;;-1.90;99.90;;;;;;4962121;28;39515;-82
2023/03/01 07:43:03;;;;;;;37.57;25.47;;;-1.70;99.90;;;;;;4949292;28;37140;-83
2023/03/01 07:51:17;;;;;;;35.60;22.37;;;-1.30;99.90;;;;;;4596395;23;20051;-83
2023/03/01 07:56:21;;;;;;;33.17;21.93;;;-0.90;99.90;;;;;;5013471;23;20060;-83
2023/03/01 07:58:48;;;;;;;29.73;20.23;;;-0.80;99.90;;;;;;4949737;28;38961;-84
2023/03/01 08:01:30;;;;;;;32.07;21.67;;;-0.70;99.90;;;;;;5166356;23;36991;-83
2023/03/01 08:04:16;;;;;;;32.10;19.20;;;-0.60;99.90;;;;;;4926668;29;37152;-83
2023/03/01 08:06:43;;;;;;;29.03;19.23;;;-0.40;99.90;;;;;;4940609;29;50017;-83
2023/03/01 08:11:54;;;;;;;;;;;-0.10;99.90;;;;;;5759127;23;20049;-82
2023/03/01 08:14:21;;;;;;;26.33;17.57;;;0.10;99.90;;;;;;4927099;29;37897;-83
2023/03/01 08:16:49;;;;;;;25.47;17.13;;;0.20;99.90;;;;;;4944860;28;39378;-81
2023/03/01 08:24:32;;;;;;;24.37;15.87;;;0.60;99.90;;;;;;5706920;23;20023;-82
2023/03/01 08:27:08;;;;;;;22.67;15.17;;;0.70;99.90;;;;;;5075458;23;39034;-84
2023/03/01 08:29:35;;;;;;;22.70;13.33;;;0.90;99.90;;;;;;5652863;23;48877;-81
2023/03/01 08:32:04;;;;;;;18.67;10.33;;;1.00;99.90;;;;;;5367189;23;36277;-83
2023/03/01 08:35:06;;;;;;;18.20;12.40;;;1.20;99.90;;;;;;4966886;28;48811;-82
2023/03/01 08:37:33;;;;;;;21.42;12.85;;;1.50;99.90;;;;;;5320550;23;50015;-83
2023/03/01 08:45:17;;;;;;;19.20;9.63;;;1.80;99.90;;;;;;4960327;23;20032;-83
2023/03/01 08:56:12;;;;;;;11.93;7.87;;;2.30;99.90;;;;;;5554719;23;20955;-83
2023/03/01 08:58:41;;;;;;;14.30;8.70;;;2.30;99.90;;;;;;5682706;23;38633;-83
2023/03/01 09:01:22;;;;;;;13.83;8.87;;;2.40;99.90;;;;;;4979247;28;40736;-82
2023/03/01 09:16:56;;;;;;;14.90;6.70;;;2.80;99.90;;;;;;5589383;23;20070;-85
2023/03/01 09:25:01;;;;;;;10.17;7.03;;;3.20;99.90;;;;;;4974285;28;20040;-83
2023/03/01 09:32:53;;;;;;;9.83;5.73;;;3.40;99.90;;;;;;4979939;28;20031;-83
2023/03/01 09:35:19;;;;;;;11.23;6.17;;;3.50;99.90;;;;;;5366502;23;38201;-83
2023/03/01 09:37:56;;;;;;;11.53;6.33;;;3.50;99.90;;;;;;4960557;28;38715;-83
2023/03/01 09:40:29;;;;;;;10.90;5.67;;;3.50;99.90;;;;;;4959858;28;38716;-82
2023/03/01 09:43:33;;;;;;;11.63;5.90;;;3.60;99.90;;;;;;5092602;23;38398;-83
2023/03/01 09:46:05;;;;;;;9.20;5.83;;;3.70;99.90;;;;;;5174010;23;46738;-83
2023/03/01 09:48:46;;;;;;;11.73;6.75;;;3.80;99.90;;;;;;4947706;29;47224;-82
2023/03/01 09:51:24;;;;;;;7.87;6.40;;;3.80;99.90;;;;;;4956349;28;38738;-82
2023/03/01 09:53:54;;;;;;;11.00;6.43;;;3.80;99.90;;;;;;4953173;28;38377;-81
2023/03/01 09:56:32;;;;;;;8.27;5.77;;;4.00;99.90;;;;;;4939368;28;37985;-82
2023/03/01 10:02:03;;;;;;;7.83;5.13;;;4.10;99.90;;;;;;5269308;23;20036;-83
2023/03/01 10:04:48;;;;;;;7.33;4.47;;;4.20;99.90;;;;;;4930206;28;48913;-79
2023/03/01 10:07:25;;;;;;;6.17;4.53;;;4.40;99.90;;;;;;4966334;28;38221;-81
2023/03/01 10:09:52;;;;;;;6.60;5.00;;;4.60;99.90;;;;;;4970473;28;37467;-82
2023/03/01 10:12:40;;;;;;;5.93;4.80;;;4.70;99.90;;;;;;4973942;28;40061;-82
2023/03/01 10:18:22;;;;;;;5.10;4.27;;;5.00;99.90;;;;;;5454888;23;20047;-82
2023/03/01 10:20:58;;;;;;;6.80;4.70;;;5.10;99.90;;;;;;4972905;28;48872;-84
2023/03/01 10:31:17;;;;;;;10.73;5.13;;;5.20;99.90;;;;;;5882910;23;21353;-81
2023/03/01 10:33:56;;;;;;;8.97;4.47;;;5.20;99.90;;;;;;4964022;28;38840;-84
2023/03/01 10:36:33;;;;;;;7.60;4.10;;;5.30;99.90;;;;;;4968551;28;38777;-84
2023/03/01 10:39:11;;;;;;;6.63;4.03;;;5.40;99.90;;;;;;5687504;23;39340;-83
2023/03/01 10:42:05;;;;;;;4.93;3.60;;;5.50;99.90;;;;;;5507460;23;48591;-81
2023/03/01 10:44:37;;;;;;;6.30;4.47;;;5.70;99.90;;;;;;4915650;29;47729;-83
2023/03/01 10:47:29;;;;;;;6.03;4.15;;;5.70;99.90;;;;;;4938598;29;40147;-81
2023/03/01 10:52:40;;;;;;;7.47;4.90;;;5.80;99.90;;;;;;5786703;23;20049;-82
2023/03/01 10:57:42;;;;;;;7.60;4.73;;;6.00;99.90;;;;;;4966349;23;20054;-82
2023/03/01 11:00:25;;;;;;;6.67;4.70;;;6.10;99.90;;;;;;4942326;28;39314;-84
2023/03/01 11:03:13;;;;;;;9.00;4.65;;;6.30;99.90;;;;;;4945755;28;48316;-82
2023/03/01 11:06:20;;;;;;;7.60;4.90;;;6.40;99.90;;;;;;4915137;29;48386;-84
2023/03/01 11:08:48;;;;;;;8.07;4.87;;;6.50;99.90;;;;;;4937646;29;50170;-84
2023/03/01 11:11:20;;;;;;;7.30;5.27;;;6.40;99.90;;;;;;4933570;29;39610;-82
2023/03/01 11:14:18;;;;;;;7.20;5.15;;;6.40;99.90;;;;;;4945543;28;35719;-82
2023/03/01 11:17:38;;;;;;;9.70;5.30;;;6.50;99.90;;;;;;4920585;29;48241;-84
2023/03/01 11:20:56;;;;;;;7.20;4.70;;;6.70;99.90;;;;;;4944860;28;47166;-82
2023/03/01 11:23:32;;;;;;;15.03;5.93;;;6.70;99.90;;;;;;4946788;29;37488;-82
2023/03/01 11:26:10;;;;;;;8.83;5.77;;;6.70;99.90;;;;;;4944291;29;36162;-84
2023/03/01 11:28:39;;;;;;;8.40;5.17;;;6.80;99.90;;;;;;4931120;29;50371;-82
2023/03/01 11:31:14;;;;;;;9.70;6.13;;;6.90;99.90;;;;;;4937761;29;38464;-85
2023/03/01 11:34:11;;;;;;;11.33;5.80;;;7.10;99.90;;;;;;4920977;29;37748;-83
2023/03/01 11:36:55;;;;;;;8.20;6.27;;;7.20;99.90;;;;;;4919597;29;48375;-83
2023/03/01 11:39:46;;;;;;;8.67;5.87;;;7.10;99.90;;;;;;4933480;28;37928;-84
2023/03/01 11:42:26;;;;;;;8.33;5.27;;;7.10;99.90;;;;;;4932087;29;38518;-82
2023/03/01 11:44:55;;;;;;;9.17;5.73;;;7.20;99.90;;;;;;4934511;29;37794;-83
2023/03/01 11:48:02;;;;;;;8.07;5.97;;;7.20;99.90;;;;;;4934547;29;36390;-85
2023/03/01 11:50:37;;;;;;;8.93;5.67;;;7.20;99.90;;;;;;4893214;29;45816;-86
2023/03/01 11:53:48;;;;;;;11.20;6.83;;;7.40;99.90;;;;;;4941369;29;37241;-84
2023/03/01 11:56:26;;;;;;;8.93;6.23;;;7.60;99.90;;;;;;4920371;29;36647;-83
2023/03/01 11:59:18;;;;;;;7.40;5.63;;;7.70;99.90;;;;;;4936097;29;37186;-83
2023/03/01 12:02:29;;;;;;;9.60;6.28;;;7.60;99.90;;;;;;4928853;29;49024;-83
2023/03/01 12:05:50;;;;;;;10.63;6.53;;;7.70;99.90;;;;;;4938604;29;48498;-83
2023/03/01 12:09:03;;;;;;;10.00;7.03;;;7.80;99.90;;;;;;4855852;29;47644;-82
2023/03/01 12:12:01;;;;;;;10.80;7.05;;;7.70;99.90;;;;;;4875106;29;50325;-82
2023/03/01 12:14:38;;;;;;;10.20;6.60;;;7.80;99.90;;;;;;4933805;29;49969;-83
2023/03/01 12:17:19;;;;;;;10.70;6.37;;;7.90;99.90;;;;;;4935975;29;39136;-83
2023/03/01 12:19:54;;;;;;;9.87;6.70;;;8.00;99.90;;;;;;4934012;29;39089;-85
2023/03/01 12:22:24;;;;;;;14.30;7.27;;;8.00;99.90;;;;;;4921991;29;39014;-85
2023/03/01 12:25:30;;;;;;;9.60;7.00;;;7.90;99.90;;;;;;4942172;29;39127;-85
2023/03/01 12:28:02;;;;;;;9.53;6.20;;;8.00;99.90;;;;;;4921326;29;48891;-85
2023/03/01 12:31:12;;;;;;;10.13;6.88;;;8.10;99.90;;;;;;4943927;29;48469;-85
2023/03/01 12:39:35;;;;;;;10.23;6.40;;;8.40;99.90;;;;;;5219474;23;20041;-85
2023/03/01 12:42:21;;;;;;;9.00;6.23;;;8.30;99.90;;;;;;4834974;29;47616;-83
2023/03/01 12:45:01;;;;;;;10.20;6.47;;;8.30;99.90;;;;;;4931176;29;37358;-84
2023/03/01 12:47:39;;;;;;;7.30;5.30;;;8.40;99.90;;;;;;4925266;29;38573;-85
2023/03/01 12:52:51;;;;;;;8.27;6.17;;;8.50;99.90;;;;;;4960252;28;20041;-84
2023/03/01 12:55:37;;;;;;;9.50;5.82;;;8.70;99.90;;;;;;4944118;29;37185;-83
2023/03/01 12:58:30;;;;;;;8.43;5.67;;;8.70;99.90;;;;;;4938216;29;39040;-83
2023/03/01 13:12:59;;;;;;;11.87;5.83;;;8.50;99.90;;;;;;5026464;23;20037;-84
2023/03/01 13:15:30;;;;;;;6.60;4.67;;;8.60;99.90;;;;;;4950689;28;38185;-83
2023/03/01 13:17:59;;;;;;;9.40;5.30;;;8.80;99.90;;;;;;4947179;28;38547;-83
2023/03/01 13:20:46;;;;;;;10.17;4.80;;;8.80;99.90;;;;;;4944260;28;40286;-83
2023/03/01 13:23:21;;;;;;;7.33;4.57;;;8.60;99.90;;;;;;4940860;28;38927;-83
2023/03/01 13:26:08;;;;;;;8.27;4.83;;;8.70;99.90;;;;;;4937295;28;37351;-84
2023/03/01 13:28:34;;;;;;;10.20;5.43;;;8.80;99.90;;;;;;4935315;28;46338;-84
2023/03/01 13:31:02;;;;;;;9.20;5.40;;;9.00;99.90;;;;;;4946004;28;38137;-84
2023/03/01 13:33:28;;;;;;;7.97;4.40;;;9.00;99.90;;;;;;4937716;29;47129;-83
2023/03/01 13:35:57;;;;;;;5.93;4.30;;;9.10;99.90;;;;;;4940065;29;38280;-84
2023/03/01 13:38:45;;;;;;;6.63;4.57;;;9.00;99.90;;;;;;4935741;29;37432;-84
2023/03/01 13:41:17;;;;;;;7.67;5.80;;;8.80;99.90;;;;;;4933983;28;40552;-81
2023/03/01 13:43:46;;;;;;;6.60;4.60;;;8.90;99.90;;;;;;4931343;29;37848;-83
2023/03/01 13:46:19;;;;;;;8.33;5.30;;;9.00;99.90;;;;;;4932693;28;38629;-83
2023/03/01 13:48:53;;;;;;;6.50;5.10;;;9.10;99.90;;;;;;4934270;28;37530;-82
2023/03/01 13:51:27;;;;;;;6.10;4.63;;;9.20;99.90;;;;;;4917675;28;38467;-82
2023/03/01 13:54:12;;;;;;;6.40;5.10;;;8.90;99.90;;;;;;4933344;29;38641;-84
2023/03/01 13:56:43;;;;;;;8.83;5.10;;;8.90;99.90;;;;;;4952158;29;49098;-83
2023/03/01 13:59:26;;;;;;;12.30;5.60;;;8.90;99.90;;;;;;4935687;28;36980;-83
2023/03/01 14:02:01;;;;;;;8.27;5.38;;;8.80;99.90;;;;;;4933199;28;37659;-78
2023/03/01 14:04:35;;;;;;;7.50;4.80;;;8.80;99.90;;;;;;4914813;29;47269;-78
2023/03/01 14:07:20;;;;;;;8.37;4.30;;;8.90;99.90;;;;;;4906234;28;37805;-78
2023/03/01 14:09:59;;;;;;;6.07;4.50;;;8.90;99.90;;;;;;4899586;29;47384;-78
2023/03/01 14:12:52;;;;;;;10.73;4.53;;;8.70;99.90;;;;;;4906973;28;38112;-78
2023/03/01 14:15:34;;;;;;;8.13;4.65;;;8.70;99.90;;;;;;4891572;28;38870;-78
2023/03/01 14:18:24;;;;;;;6.50;4.73;;;8.80;99.90;;;;;;4899162;28;36873;-78
2023/03/01 14:20:52;;;;;;;9.93;5.40;;;8.90;99.90;;;;;;4878855;28;47159;-79
2023/03/01 14:23:22;;;;;;;7.13;4.80;;;8.80;99.90;;;;;;4925181;28;39370;-78
2023/03/01 14:25:50;;;;;;;6.63;4.50;;;8.70;99.90;;;;;;4902321;28;38843;-77
2023/03/01 14:28:56;;;;;;;6.73;4.50;;;8.70;99.90;;;;;;4884268;28;38317;-79
2023/03/01 14:31:42;;;;;;;5.93;4.00;;;8.70;99.90;;;;;;4916851;28;35976;-79
2023/03/01 14:34:20;;;;;;;6.93;4.50;;;8.80;99.90;;;;;;4889532;28;37595;-79
2023/03/01 14:36:54;;;;;;;9.90;4.90;;;8.80;99.90;;;;;;4902629;29;38282;-79
2023/03/01 14:39:26;;;;;;;5.20;4.27;;;8.70;99.90;;;;;;4898972;28;38279;-79
2023/03/01 14:41:52;;;;;;;5.05;3.90;;;8.70;99.90;;;;;;4909220;29;37227;-79
2023/03/01 14:44:24;;;;;;;6.47;4.30;;;8.70;99.90;;;;;;4909748;29;38295;-79
2023/03/01 14:47:01;;;;;;;6.33;4.60;;;8.60;99.90;;;;;;4923107;28;38283;-79
2023/03/01 14:49:31;;;;;;;5.13;3.70;;;8.60;99.90;;;;;;4923872;28;49503;-79
2023/03/01 14:52:06;;;;;;;6.93;4.13;;;8.60;99.90;;;;;;4906047;28;36101;-80
2023/03/01 14:54:54;;;;;;;7.53;4.40;;;8.60;99.90;;;;;;4896135;29;46955;-79
2023/03/01 14:57:27;;;;;;;7.47;5.00;;;8.70;99.90;;;;;;4909308;28;38385;-79
2023/03/01 14:59:58;;;;;;;5.67;4.17;;;8.70;99.90;;;;;;4919490;29;39525;-79
2023/03/01 15:02:32;;;;;;;5.87;4.23;;;8.70;99.90;;;;;;4907380;28;37383;-80
2023/03/01 15:05:06;;;;;;;6.80;4.10;;;8.80;99.90;;;;;;4910685;28;39288;-79
2023/03/01 15:07:39;;;;;;;6.47;4.67;;;8.70;99.90;;;;;;4927947;28;47730;-79
2023/03/01 15:10:07;;;;;;;5.45;4.10;;;8.70;99.90;;;;;;4918578;29;36881;-80
2023/03/01 15:12:39;;;;;;;6.03;4.60;;;8.60;99.90;;;;;;4891103;29;36118;-79
2023/03/01 15:15:26;;;;;;;6.13;4.60;;;8.60;99.90;;;;;;4888384;29;38034;-79
2023/03/01 15:18:04;;;;;;;7.03;4.40;;;8.50;99.90;;;;;;4889880;29;37447;-79
2023/03/01 15:20:35;;;;;;;13.23;6.30;;;8.50;99.90;;;;;;4901832;29;48265;-79
2023/03/01 15:23:02;;;;;;;8.73;4.90;;;8.50;99.90;;;;;;4902781;29;37795;-80
2023/03/01 15:25:30;;;;;;;5.80;4.30;;;8.40;99.90;;;;;;4887246;29;47013;-79
2023/03/01 15:27:58;;;;;;;6.67;4.37;;;8.40;99.90;;;;;;4889953;29;37508;-79
2023/03/01 15:30:37;;;;;;;7.30;3.93;;;8.40;99.90;;;;;;4891296;29;37830;-79
2023/03/01 15:33:29;;;;;;;5.23;4.00;;;8.40;99.90;;;;;;4896324;29;35934;-79
2023/03/01 15:35:58;;;;;;;5.78;3.88;;;8.30;99.90;;;;;;4897724;29;40066;-79
2023/03/01 15:38:57;;;;;;;6.03;3.50;;;8.30;99.90;;;;;;4885893;29;37474;-79
2023/03/01 15:41:47;;;;;;;7.27;4.20;;;8.30;99.90;;;;;;4878509;29;36906;-80
2023/03/01 15:44:27;;;;;;;5.50;3.73;;;8.20;99.90;;;;;;4905333;29;37063;-79
2023/03/01 15:46:54;;;;;;;5.57;4.17;;;8.10;99.90;;;;;;4900062;29;38428;-79
2023/03/01 15:49:26;;;;;;;6.37;4.57;;;8.10;99.90;;;;;;4886099;29;37269;-79
2023/03/01 15:51:54;;;;;;;10.93;5.05;;;8.10;99.90;;;;;;4890232;29;38053;-79
2023/03/01 15:54:24;;;;;;;9.53;4.80;;;8.10;99.90;;;;;;4884730;29;36414;-79
2023/03/01 15:56:50;;;;;;;5.67;4.47;;;8.00;99.90;;;;;;4886379;29;38050;-79
2023/03/01 15:59:17;;;;;;;8.80;4.97;;;8.00;99.90;;;;;;4887456;29;37413;-78
2023/03/01 16:01:44;;;;;;;15.43;5.73;;;7.90;99.90;;;;;;4878296;29;37043;-78
2023/03/01 16:04:16;;;;;;;5.80;4.17;;;7.90;99.90;;;;;;4887538;29;36301;-79
2023/03/01 16:06:42;;;;;;;7.07;4.50;;;7.80;99.90;;;;;;4902687;29;37656;-81
2023/03/01 16:09:08;;;;;;;12.27;4.80;;;7.70;99.90;;;;;;4911327;29;38941;-77
2023/03/01 16:11:36;;;;;;;5.90;4.70;;;7.70;99.90;;;;;;4904292;28;38200;-79
2023/03/01 16:14:03;;;;;;;8.27;5.00;;;7.60;99.90;;;;;;4921480;28;37489;-79
2023/03/01 16:16:29;;;;;;;7.73;4.50;;;7.60;99.90;;;;;;4925802;28;37470;-78
2023/03/01 16:18:55;;;;;;;7.03;4.50;;;7.60;99.90;;;;;;4919324;28;37694;-80
2023/03/01 16:21:25;;;;;;;10.53;5.47;;;7.60;99.90;;;;;;4902030;29;38274;-81
2023/03/01 16:23:51;;;;;;;5.20;4.43;;;7.60;99.90;;;;;;4909464;28;36230;-79
2023/03/01 16:26:18;;;;;;;8.10;5.03;;;7.50;99.90;;;;;;4910432;29;39151;-80
2023/03/01 16:28:45;;;;;;;8.03;4.63;;;7.50;99.90;;;;;;4913950;28;38301;-80
2023/03/01 16:31:16;;;;;;;10.87;4.13;;;7.40;99.90;;;;;;4913131;29;36911;-80
2023/03/01 16:33:42;;;;;;;6.53;4.30;;;7.30;99.90;;;;;;4910881;28;36832;-80
2023/03/01 16:36:10;;;;;;;6.97;3.90;;;7.30;99.90;;;;;;4913587;28;37777;-80
2023/03/01 16:38:37;;;;;;;6.17;3.80;;;7.20;99.90;;;;;;4921095;28;37289;-78
2023/03/01 16:41:03;;;;;;;7.17;4.57;;;7.20;99.90;;;;;;4913872;28;36936;-81
2023/03/01 16:43:34;;;;;;;6.50;3.70;;;7.20;99.90;;;;;;4936400;28;36070;-81
2023/03/01 16:46:10;;;;;;;6.77;3.47;;;7.10;99.90;;;;;;4907429;28;38922;-79
2023/03/01 16:48:39;;;;;;;7.23;4.20;;;7.00;99.90;;;;;;4909407;29;47257;-78
2023/03/01 16:51:07;;;;;;;7.57;4.00;;;7.00;99.90;;;;;;4910134;28;36941;-78
2023/03/01 16:53:37;;;;;;;9.80;4.50;;;6.90;99.90;;;;;;4925534;28;36936;-78
2023/03/01 16:56:07;;;;;;;6.40;4.67;;;6.80;99.90;;;;;;4911491;29;37837;-77
2023/03/01 16:58:38;;;;;;;6.83;4.90;;;6.70;99.90;;;;;;4917580;29;38709;-78
2023/03/01 17:01:11;;;;;;;7.83;5.53;;;6.70;99.90;;;;;;4909303;29;38440;-78
2023/03/01 17:03:41;;;;;;;9.30;6.27;;;6.50;99.90;;;;;;4911567;28;37673;-78
2023/03/01 17:06:20;;;;;;;8.03;5.10;;;6.50;99.90;;;;;;4929062;29;39177;-78
2023/03/01 17:09:00;;;;;;;10.43;5.03;;;6.50;99.90;;;;;;4903504;29;38104;-78
2023/03/01 17:11:30;;;;;;;6.73;4.47;;;6.40;99.90;;;;;;4903707;29;36991;-78
2023/03/01 17:14:02;;;;;;;8.37;4.10;;;6.40;99.90;;;;;;4887365;29;38459;-79
2023/03/01 17:16:29;;;;;;;7.45;4.38;;;6.30;99.90;;;;;;4874574;29;47569;-79
2023/03/01 17:18:55;;;;;;;5.90;4.23;;;6.20;99.90;;;;;;4891875;29;38709;-78
2023/03/01 17:21:23;;;;;;;10.97;4.50;;;6.10;99.90;;;;;;4892585;29;36913;-78
2023/03/01 17:23:54;;;;;;;6.97;4.50;;;6.00;99.90;;;;;;4895630;29;36099;-78
2023/03/01 17:26:24;;;;;;;9.30;5.22;;;5.90;99.90;;;;;;4896628;29;20132;-79
2023/03/01 17:28:54;;;;;;;8.33;5.03;;;5.80;99.90;;;;;;4873712;29;38462;-79
2023/03/01 17:31:23;;;;;;;7.87;4.80;;;5.70;99.90;;;;;;4890817;29;37179;-78
2023/03/01 17:33:51;;;;;;;8.63;5.30;;;5.80;99.90;;;;;;4878448;29;36077;-79
2023/03/01 17:36:20;;;;;;;8.30;4.43;;;5.80;99.90;;;;;;4885981;29;37605;-79
2023/03/01 17:44:47;;;;;;;7.57;4.77;;;5.60;99.90;;;;;;5728605;23;20048;-77
2023/03/01 17:47:13;;;;;;;7.43;4.88;;;5.50;99.90;;;;;;4929042;28;38109;-78
2023/03/01 17:49:40;;;;;;;7.53;4.90;;;5.50;99.90;;;;;;4930811;28;37245;-79
2023/03/01 17:52:25;;;;;;;7.07;4.77;;;5.40;99.90;;;;;;4912667;28;38390;-79
2023/03/01 17:54:54;;;;;;;7.93;5.00;;;5.40;99.90;;;;;;4921677;28;38301;-78
2023/03/01 17:57:21;;;;;;;7.47;4.90;;;5.30;99.90;;;;;;4913311;28;40321;-77
2023/03/01 17:59:47;;;;;;;9.10;5.40;;;5.30;99.90;;;;;;4944426;28;38131;-78
2023/03/01 18:02:13;;;;;;;14.60;8.63;;;5.30;99.90;;;;;;4928355;28;37685;-79
2023/03/01 18:04:39;;;;;;;11.83;7.40;;;5.30;99.90;;;;;;4943434;28;37280;-78
2023/03/01 18:07:05;;;;;;;9.50;6.30;;;5.30;99.90;;;;;;4929069;28;37967;-78
2023/03/01 18:12:09;;;;;;;10.33;4.90;;;5.20;99.90;;;;;;5260664;23;20062;-81
2023/03/01 18:14:36;;;;;;;7.53;5.23;;;5.10;99.90;;;;;;4939369;28;36583;-80
2023/03/01 18:17:05;;;;;;;7.40;5.33;;;5.00;99.90;;;;;;4939858;28;37605;-79
2023/03/01 18:19:31;;;;;;;9.60;5.20;;;4.90;99.90;;;;;;4939499;28;38494;-78
2023/03/01 18:21:57;;;;;;;9.47;6.03;;;5.00;99.90;;;;;;4932712;28;36866;-78
2023/03/01 18:24:23;;;;;;;8.40;5.67;;;4.90;99.90;;;;;;4952862;28;36931;-79
2023/03/01 18:26:49;;;;;;;8.37;5.63;;;4.90;99.90;;;;;;4937357;28;36975;-78
2023/03/01 18:29:16;;;;;;;8.27;5.57;;;4.90;99.90;;;;;;4931772;28;38836;-78
2023/03/01 18:36:57;;;;;;;12.47;6.03;;;4.80;99.90;;;;;;5645658;23;20031;-82
2023/03/01 18:39:53;;;;;;;16.80;6.70;;;4.80;99.90;;;;;;4956674;28;37632;-83
2023/03/01 18:45:24;;;;;;;9.93;6.43;;;4.80;99.90;;;;;;5000240;23;20204;-83
2023/03/01 18:47:53;;;;;;;10.57;6.50;;;4.80;99.90;;;;;;4979548;28;50184;-83
2023/03/01 18:52:57;;;;;;;11.57;6.17;;;4.70;99.90;;;;;;5579110;23;20047;-82
2023/03/01 19:09:05;;;;;;;9.47;5.70;;;4.40;99.90;;;;;;5182473;23;20051;-82
2023/03/01 19:24:31;;;;;;;43.10;16.80;;;4.40;99.90;;;;;;5328308;23;20039;-82
2023/03/01 19:27:05;;;;;;;40.20;16.47;;;4.40;99.90;;;;;;4960152;28;37838;-81
2023/03/01 19:29:32;;;;;;;101.10;30.40;;;4.30;99.90;;;;;;4963025;28;48264;-83
2023/03/01 19:31:59;;;;;;;17.53;10.07;;;4.20;99.90;;;;;;4958085;28;39045;-82